sensor_id;sensor_type;location;lat;lon;timestamp;P1;durP1;ratioP1;P2;durP2;ratioP2
76712;SDS011;65640;43.154;25.658;2023-06-26T00:01:32;0.93;;;0.90;;
76712;SDS011;65640;43.154;25.658;2023-06-26T00:03:58;2.05;;;0.98;;
76712;SDS011;65640;43.154;25.658;2023-06-26T00:06:25;1.77;;;1.60;;
76712;SDS011;65640;43.154;25.658;2023-06-26T00:08:51;1.10;;;1.00;;
76712;SDS011;65640;43.154;25.658;2023-06-26T00:11:18;1.00;;;0.95;;
76712;SDS011;65640;43.154;25.658;2023-06-26T00:16:09;1.40;;;1.30;;
76712;SDS011;65640;43.154;25.658;2023-06-26T00:18:35;1.42;;;1.27;;
76712;SDS011;65640;43.154;25.658;2023-06-26T00:21:00;1.92;;;1.80;;
76712;SDS011;65640;43.154;25.658;2023-06-26T00:23:25;2.15;;;1.60;;
76712;SDS011;65640;43.154;25.658;2023-06-26T00:25:52;2.20;;;1.98;;
76712;SDS011;65640;43.154;25.658;2023-06-26T00:28:18;2.40;;;2.20;;
76712;SDS011;65640;43.154;25.658;2023-06-26T00:30:43;2.70;;;2.10;;
76712;SDS011;65640;43.154;25.658;2023-06-26T00:33:09;3.28;;;2.22;;
76712;SDS011;65640;43.154;25.658;2023-06-26T00:35:34;4.13;;;2.65;;
76712;SDS011;65640;43.154;25.658;2023-06-26T00:38:00;2.30;;;2.20;;
76712;SDS011;65640;43.154;25.658;2023-06-26T00:40:26;3.08;;;2.88;;
76712;SDS011;65640;43.154;25.658;2023-06-26T00:42:52;3.22;;;2.85;;
76712;SDS011;65640;43.154;25.658;2023-06-26T00:45:18;3.25;;;2.85;;
76712;SDS011;65640;43.154;25.658;2023-06-26T00:47:44;8.48;;;3.25;;
76712;SDS011;65640;43.154;25.658;2023-06-26T00:50:09;10.18;;;4.85;;
76712;SDS011;65640;43.154;25.658;2023-06-26T00:52:35;3.67;;;2.70;;
76712;SDS011;65640;43.154;25.658;2023-06-26T00:57:27;4.95;;;2.80;;
76712;SDS011;65640;43.154;25.658;2023-06-26T00:59:52;3.83;;;3.47;;
76712;SDS011;65640;43.154;25.658;2023-06-26T01:02:18;3.67;;;3.25;;
76712;SDS011;65640;43.154;25.658;2023-06-26T01:04:46;4.63;;;3.45;;
76712;SDS011;65640;43.154;25.658;2023-06-26T01:07:13;3.17;;;2.97;;
76712;SDS011;65640;43.154;25.658;2023-06-26T01:09:40;4.10;;;3.03;;
76712;SDS011;65640;43.154;25.658;2023-06-26T01:12:06;8.50;;;3.20;;
76712;SDS011;65640;43.154;25.658;2023-06-26T01:14:31;4.50;;;3.47;;
76712;SDS011;65640;43.154;25.658;2023-06-26T01:16:59;4.90;;;2.85;;
76712;SDS011;65640;43.154;25.658;2023-06-26T01:19:27;3.40;;;3.10;;
76712;SDS011;65640;43.154;25.658;2023-06-26T01:22:17;5.38;;;3.47;;
76712;SDS011;65640;43.154;25.658;2023-06-26T01:24:56;3.40;;;3.10;;
76712;SDS011;65640;43.154;25.658;2023-06-26T01:27:35;3.80;;;3.50;;
76712;SDS011;65640;43.154;25.658;2023-06-26T01:30:03;3.80;;;3.22;;
76712;SDS011;65640;43.154;25.658;2023-06-26T01:32:30;4.95;;;4.07;;
76712;SDS011;65640;43.154;25.658;2023-06-26T01:34:57;3.83;;;3.53;;
76712;SDS011;65640;43.154;25.658;2023-06-26T01:37:24;5.07;;;4.38;;
76712;SDS011;65640;43.154;25.658;2023-06-26T01:39:49;3.53;;;3.33;;
76712;SDS011;65640;43.154;25.658;2023-06-26T01:42:15;7.05;;;3.63;;
76712;SDS011;65640;43.154;25.658;2023-06-26T01:44:42;3.72;;;3.30;;
76712;SDS011;65640;43.154;25.658;2023-06-26T01:47:10;6.28;;;2.70;;
76712;SDS011;65640;43.154;25.658;2023-06-26T01:49:56;4.45;;;3.33;;
76712;SDS011;65640;43.154;25.658;2023-06-26T01:52:29;5.47;;;3.40;;
76712;SDS011;65640;43.154;25.658;2023-06-26T01:55:12;7.45;;;3.08;;
76712;SDS011;65640;43.154;25.658;2023-06-26T01:57:47;3.20;;;2.97;;
76712;SDS011;65640;43.154;25.658;2023-06-26T02:02:42;5.45;;;2.47;;
76712;SDS011;65640;43.154;25.658;2023-06-26T02:05:09;3.00;;;2.70;;
76712;SDS011;65640;43.154;25.658;2023-06-26T02:07:34;5.15;;;2.70;;
76712;SDS011;65640;43.154;25.658;2023-06-26T02:09:59;4.28;;;3.20;;
76712;SDS011;65640;43.154;25.658;2023-06-26T02:12:25;6.68;;;3.30;;
76712;SDS011;65640;43.154;25.658;2023-06-26T02:14:50;7.72;;;3.20;;
76712;SDS011;65640;43.154;25.658;2023-06-26T02:17:16;3.35;;;2.72;;
76712;SDS011;65640;43.154;25.658;2023-06-26T02:19:41;3.97;;;3.30;;
76712;SDS011;65640;43.154;25.658;2023-06-26T02:22:12;4.68;;;3.00;;
76712;SDS011;65640;43.154;25.658;2023-06-26T02:24:39;3.42;;;3.13;;
76712;SDS011;65640;43.154;25.658;2023-06-26T02:27:04;8.43;;;3.50;;
76712;SDS011;65640;43.154;25.658;2023-06-26T02:29:29;3.83;;;3.50;;
76712;SDS011;65640;43.154;25.658;2023-06-26T02:31:55;3.33;;;3.03;;
76712;SDS011;65640;43.154;25.658;2023-06-26T02:34:20;5.43;;;3.20;;
76712;SDS011;65640;43.154;25.658;2023-06-26T02:36:45;3.30;;;3.10;;
76712;SDS011;65640;43.154;25.658;2023-06-26T02:39:11;7.75;;;3.00;;
76712;SDS011;65640;43.154;25.658;2023-06-26T02:41:36;3.55;;;3.22;;
76712;SDS011;65640;43.154;25.658;2023-06-26T02:44:02;4.40;;;2.50;;
76712;SDS011;65640;43.154;25.658;2023-06-26T02:46:27;4.32;;;2.95;;
76712;SDS011;65640;43.154;25.658;2023-06-26T02:48:53;7.43;;;3.13;;
76712;SDS011;65640;43.154;25.658;2023-06-26T02:51:18;7.28;;;3.00;;
76712;SDS011;65640;43.154;25.658;2023-06-26T02:53:43;3.75;;;3.00;;
76712;SDS011;65640;43.154;25.658;2023-06-26T02:56:09;3.40;;;3.20;;
76712;SDS011;65640;43.154;25.658;2023-06-26T02:58:34;3.00;;;2.80;;
76712;SDS011;65640;43.154;25.658;2023-06-26T03:01:00;5.75;;;2.97;;
76712;SDS011;65640;43.154;25.658;2023-06-26T03:03:25;2.83;;;2.63;;
76712;SDS011;65640;43.154;25.658;2023-06-26T03:05:50;4.60;;;3.28;;
76712;SDS011;65640;43.154;25.658;2023-06-26T03:08:16;3.15;;;2.90;;
76712;SDS011;65640;43.154;25.658;2023-06-26T03:10:41;4.05;;;2.55;;
76712;SDS011;65640;43.154;25.658;2023-06-26T03:13:07;5.38;;;3.05;;
76712;SDS011;65640;43.154;25.658;2023-06-26T03:15:32;3.00;;;2.70;;
76712;SDS011;65640;43.154;25.658;2023-06-26T03:17:57;2.95;;;2.70;;
76712;SDS011;65640;43.154;25.658;2023-06-26T03:20:23;6.03;;;2.53;;
76712;SDS011;65640;43.154;25.658;2023-06-26T03:22:48;2.88;;;2.45;;
76712;SDS011;65640;43.154;25.658;2023-06-26T03:25:14;4.80;;;2.40;;
76712;SDS011;65640;43.154;25.658;2023-06-26T03:27:39;4.82;;;2.72;;
76712;SDS011;65640;43.154;25.658;2023-06-26T03:30:05;4.13;;;2.60;;
76712;SDS011;65640;43.154;25.658;2023-06-26T03:32:31;5.90;;;2.80;;
76712;SDS011;65640;43.154;25.658;2023-06-26T03:34:56;5.30;;;2.45;;
76712;SDS011;65640;43.154;25.658;2023-06-26T03:37:22;2.97;;;2.78;;
76712;SDS011;65640;43.154;25.658;2023-06-26T03:39:47;4.75;;;3.42;;
76712;SDS011;65640;43.154;25.658;2023-06-26T03:42:12;3.65;;;3.28;;
76712;SDS011;65640;43.154;25.658;2023-06-26T03:44:38;5.50;;;3.65;;
76712;SDS011;65640;43.154;25.658;2023-06-26T03:47:03;4.28;;;3.97;;
76712;SDS011;65640;43.154;25.658;2023-06-26T03:49:29;6.57;;;4.00;;
76712;SDS011;65640;43.154;25.658;2023-06-26T03:51:54;4.68;;;4.15;;
76712;SDS011;65640;43.154;25.658;2023-06-26T03:54:20;5.78;;;4.30;;
76712;SDS011;65640;43.154;25.658;2023-06-26T03:56:45;5.18;;;4.10;;
76712;SDS011;65640;43.154;25.658;2023-06-26T03:59:10;5.90;;;4.70;;
76712;SDS011;65640;43.154;25.658;2023-06-26T04:01:36;9.55;;;5.10;;
76712;SDS011;65640;43.154;25.658;2023-06-26T04:04:03;9.57;;;5.30;;
76712;SDS011;65640;43.154;25.658;2023-06-26T04:06:28;5.75;;;5.35;;
76712;SDS011;65640;43.154;25.658;2023-06-26T04:08:56;7.00;;;6.22;;
76712;SDS011;65640;43.154;25.658;2023-06-26T04:11:22;11.75;;;6.97;;
76712;SDS011;65640;43.154;25.658;2023-06-26T04:13:47;8.00;;;7.25;;
76712;SDS011;65640;43.154;25.658;2023-06-26T04:16:12;11.50;;;6.93;;
76712;SDS011;65640;43.154;25.658;2023-06-26T04:18:38;16.00;;;7.20;;
76712;SDS011;65640;43.154;25.658;2023-06-26T04:21:10;9.70;;;7.82;;
76712;SDS011;65640;43.154;25.658;2023-06-26T04:23:37;11.77;;;7.35;;
76712;SDS011;65640;43.154;25.658;2023-06-26T04:26:04;8.48;;;7.00;;
76712;SDS011;65640;43.154;25.658;2023-06-26T04:28:31;11.25;;;7.13;;
76712;SDS011;65640;43.154;25.658;2023-06-26T04:30:57;12.32;;;7.00;;
76712;SDS011;65640;43.154;25.658;2023-06-26T04:33:23;8.70;;;6.82;;
76712;SDS011;65640;43.154;25.658;2023-06-26T04:35:50;15.27;;;7.28;;
76712;SDS011;65640;43.154;25.658;2023-06-26T04:38:16;10.20;;;6.75;;
76712;SDS011;65640;43.154;25.658;2023-06-26T04:40:41;13.02;;;7.30;;
76712;SDS011;65640;43.154;25.658;2023-06-26T04:43:07;8.30;;;7.47;;
76712;SDS011;65640;43.154;25.658;2023-06-26T04:45:32;11.38;;;6.72;;
76712;SDS011;65640;43.154;25.658;2023-06-26T04:47:57;10.00;;;6.85;;
76712;SDS011;65640;43.154;25.658;2023-06-26T04:50:25;11.73;;;7.82;;
76712;SDS011;65640;43.154;25.658;2023-06-26T04:52:53;7.63;;;6.70;;
76712;SDS011;65640;43.154;25.658;2023-06-26T04:55:18;11.65;;;7.03;;
76712;SDS011;65640;43.154;25.658;2023-06-26T04:57:43;9.82;;;7.25;;
76712;SDS011;65640;43.154;25.658;2023-06-26T05:00:09;8.50;;;7.30;;
76712;SDS011;65640;43.154;25.658;2023-06-26T05:02:36;12.43;;;7.57;;
76712;SDS011;65640;43.154;25.658;2023-06-26T05:05:01;14.27;;;8.15;;
76712;SDS011;65640;43.154;25.658;2023-06-26T05:07:26;13.80;;;7.28;;
76712;SDS011;65640;43.154;25.658;2023-06-26T05:09:52;7.80;;;6.97;;
76712;SDS011;65640;43.154;25.658;2023-06-26T05:12:17;13.32;;;7.45;;
76712;SDS011;65640;43.154;25.658;2023-06-26T05:14:43;14.63;;;7.57;;
76712;SDS011;65640;43.154;25.658;2023-06-26T05:17:08;11.20;;;7.25;;
76712;SDS011;65640;43.154;25.658;2023-06-26T05:19:34;8.85;;;7.18;;
76712;SDS011;65640;43.154;25.658;2023-06-26T05:22:00;14.15;;;8.07;;
76712;SDS011;65640;43.154;25.658;2023-06-26T05:24:29;14.82;;;8.57;;
76712;SDS011;65640;43.154;25.658;2023-06-26T05:26:55;12.05;;;7.47;;
76712;SDS011;65640;43.154;25.658;2023-06-26T05:29:21;11.80;;;7.85;;
76712;SDS011;65640;43.154;25.658;2023-06-26T05:31:47;10.15;;;7.38;;
76712;SDS011;65640;43.154;25.658;2023-06-26T05:34:14;9.00;;;7.97;;
76712;SDS011;65640;43.154;25.658;2023-06-26T05:36:42;9.70;;;7.43;;
76712;SDS011;65640;43.154;25.658;2023-06-26T05:39:08;10.73;;;8.15;;
76712;SDS011;65640;43.154;25.658;2023-06-26T05:41:34;8.93;;;7.97;;
76712;SDS011;65640;43.154;25.658;2023-06-26T05:44:00;10.00;;;8.82;;
76712;SDS011;65640;43.154;25.658;2023-06-26T05:46:25;12.65;;;8.18;;
76712;SDS011;65640;43.154;25.658;2023-06-26T05:48:51;11.40;;;8.85;;
76712;SDS011;65640;43.154;25.658;2023-06-26T05:51:16;12.90;;;8.10;;
76712;SDS011;65640;43.154;25.658;2023-06-26T05:53:42;10.30;;;7.15;;
76712;SDS011;65640;43.154;25.658;2023-06-26T05:56:08;11.20;;;7.75;;
76712;SDS011;65640;43.154;25.658;2023-06-26T05:58:34;8.60;;;7.70;;
76712;SDS011;65640;43.154;25.658;2023-06-26T06:01:00;8.77;;;6.70;;
76712;SDS011;65640;43.154;25.658;2023-06-26T06:03:25;13.82;;;7.43;;
76712;SDS011;65640;43.154;25.658;2023-06-26T06:05:51;8.30;;;6.47;;
76712;SDS011;65640;43.154;25.658;2023-06-26T06:08:16;12.77;;;6.28;;
76712;SDS011;65640;43.154;25.658;2023-06-26T06:10:42;7.20;;;6.60;;
76712;SDS011;65640;43.154;25.658;2023-06-26T06:13:07;8.80;;;6.53;;
76712;SDS011;65640;43.154;25.658;2023-06-26T06:15:33;7.65;;;6.10;;
76712;SDS011;65640;43.154;25.658;2023-06-26T06:17:58;9.20;;;6.60;;
76712;SDS011;65640;43.154;25.658;2023-06-26T06:20:24;10.57;;;6.63;;
76712;SDS011;65640;43.154;25.658;2023-06-26T06:25:15;8.75;;;6.88;;
76712;SDS011;65640;43.154;25.658;2023-06-26T06:27:41;10.70;;;6.50;;
76712;SDS011;65640;43.154;25.658;2023-06-26T06:30:06;10.32;;;7.03;;
76712;SDS011;65640;43.154;25.658;2023-06-26T06:32:33;7.57;;;6.65;;
76712;SDS011;65640;43.154;25.658;2023-06-26T06:34:58;8.95;;;6.03;;
76712;SDS011;65640;43.154;25.658;2023-06-26T06:37:24;8.43;;;7.10;;
76712;SDS011;65640;43.154;25.658;2023-06-26T06:39:49;8.80;;;5.93;;
76712;SDS011;65640;43.154;25.658;2023-06-26T06:42:14;7.10;;;5.97;;
76712;SDS011;65640;43.154;25.658;2023-06-26T06:44:40;7.07;;;6.43;;
76712;SDS011;65640;43.154;25.658;2023-06-26T06:47:05;9.93;;;5.82;;
76712;SDS011;65640;43.154;25.658;2023-06-26T06:49:31;8.15;;;5.57;;
76712;SDS011;65640;43.154;25.658;2023-06-26T06:51:56;6.25;;;5.65;;
76712;SDS011;65640;43.154;25.658;2023-06-26T06:54:25;7.45;;;5.78;;
76712;SDS011;65640;43.154;25.658;2023-06-26T06:56:51;8.30;;;5.60;;
76712;SDS011;65640;43.154;25.658;2023-06-26T06:59:16;6.47;;;5.85;;
76712;SDS011;65640;43.154;25.658;2023-06-26T07:01:42;9.95;;;4.90;;
76712;SDS011;65640;43.154;25.658;2023-06-26T07:04:07;8.50;;;5.70;;
76712;SDS011;65640;43.154;25.658;2023-06-26T07:06:33;7.32;;;4.75;;
76712;SDS011;65640;43.154;25.658;2023-06-26T07:08:59;5.93;;;4.80;;
76712;SDS011;65640;43.154;25.658;2023-06-26T07:11:24;9.60;;;4.80;;
76712;SDS011;65640;43.154;25.658;2023-06-26T07:13:50;5.05;;;4.75;;
76712;SDS011;65640;43.154;25.658;2023-06-26T07:16:15;7.63;;;4.72;;
76712;SDS011;65640;43.154;25.658;2023-06-26T07:18:41;5.70;;;5.10;;
76712;SDS011;65640;43.154;25.658;2023-06-26T07:21:07;7.63;;;4.80;;
76712;SDS011;65640;43.154;25.658;2023-06-26T07:23:32;7.55;;;5.05;;
76712;SDS011;65640;43.154;25.658;2023-06-26T07:25:57;6.72;;;4.57;;
76712;SDS011;65640;43.154;25.658;2023-06-26T07:28:23;7.03;;;5.20;;
76712;SDS011;65640;43.154;25.658;2023-06-26T07:30:49;8.63;;;5.05;;
76712;SDS011;65640;43.154;25.658;2023-06-26T07:33:15;7.68;;;5.03;;
76712;SDS011;65640;43.154;25.658;2023-06-26T07:35:40;11.35;;;4.68;;
76712;SDS011;65640;43.154;25.658;2023-06-26T07:38:05;4.85;;;4.43;;
76712;SDS011;65640;43.154;25.658;2023-06-26T07:40:31;9.00;;;4.88;;
76712;SDS011;65640;43.154;25.658;2023-06-26T07:42:56;5.15;;;4.50;;
76712;SDS011;65640;43.154;25.658;2023-06-26T07:45:23;5.43;;;5.03;;
76712;SDS011;65640;43.154;25.658;2023-06-26T07:47:48;5.55;;;4.88;;
76712;SDS011;65640;43.154;25.658;2023-06-26T07:50:14;7.55;;;4.80;;
76712;SDS011;65640;43.154;25.658;2023-06-26T07:52:44;6.40;;;4.50;;
76712;SDS011;65640;43.154;25.658;2023-06-26T07:55:10;7.65;;;4.72;;
76712;SDS011;65640;43.154;25.658;2023-06-26T07:57:35;7.97;;;4.72;;
76712;SDS011;65640;43.154;25.658;2023-06-26T08:00:01;8.88;;;4.57;;
76712;SDS011;65640;43.154;25.658;2023-06-26T08:02:26;5.68;;;4.80;;
76712;SDS011;65640;43.154;25.658;2023-06-26T08:04:51;6.53;;;4.50;;
76712;SDS011;65640;43.154;25.658;2023-06-26T08:07:17;9.88;;;4.20;;
76712;SDS011;65640;43.154;25.658;2023-06-26T08:09:43;7.65;;;4.72;;
76712;SDS011;65640;43.154;25.658;2023-06-26T08:12:09;10.45;;;4.85;;
76712;SDS011;65640;43.154;25.658;2023-06-26T08:14:34;5.20;;;4.80;;
76712;SDS011;65640;43.154;25.658;2023-06-26T08:17:00;5.45;;;4.70;;
76712;SDS011;65640;43.154;25.658;2023-06-26T08:21:50;4.70;;;4.28;;
76712;SDS011;65640;43.154;25.658;2023-06-26T08:24:16;4.93;;;4.50;;
76712;SDS011;65640;43.154;25.658;2023-06-26T08:26:44;7.10;;;5.00;;
76712;SDS011;65640;43.154;25.658;2023-06-26T08:29:10;5.55;;;4.43;;
76712;SDS011;65640;43.154;25.658;2023-06-26T08:34:02;5.43;;;4.35;;
76712;SDS011;65640;43.154;25.658;2023-06-26T08:36:28;5.15;;;4.65;;
76712;SDS011;65640;43.154;25.658;2023-06-26T08:41:19;49.83;;;8.13;;
76712;SDS011;65640;43.154;25.658;2023-06-26T08:43:44;5.60;;;4.72;;
76712;SDS011;65640;43.154;25.658;2023-06-26T08:48:35;5.30;;;4.80;;
76712;SDS011;65640;43.154;25.658;2023-06-26T08:51:07;5.65;;;4.80;;
76712;SDS011;65640;43.154;25.658;2023-06-26T08:53:43;5.47;;;4.95;;
76712;SDS011;65640;43.154;25.658;2023-06-26T08:56:17;4.93;;;4.25;;
76712;SDS011;65640;43.154;25.658;2023-06-26T08:58:46;5.82;;;4.57;;
76712;SDS011;65640;43.154;25.658;2023-06-26T09:03:37;6.82;;;4.90;;
76712;SDS011;65640;43.154;25.658;2023-06-26T09:08:28;9.70;;;5.13;;
76712;SDS011;65640;43.154;25.658;2023-06-26T09:13:19;6.78;;;4.88;;
76712;SDS011;65640;43.154;25.658;2023-06-26T09:15:45;4.95;;;4.55;;
76712;SDS011;65640;43.154;25.658;2023-06-26T09:18:11;6.20;;;4.80;;
76712;SDS011;65640;43.154;25.658;2023-06-26T09:20:37;4.85;;;4.25;;
76712;SDS011;65640;43.154;25.658;2023-06-26T09:23:03;5.95;;;5.38;;
76712;SDS011;65640;43.154;25.658;2023-06-26T09:27:54;4.63;;;4.25;;
76712;SDS011;65640;43.154;25.658;2023-06-26T09:30:20;6.72;;;3.95;;
76712;SDS011;65640;43.154;25.658;2023-06-26T09:35:11;5.97;;;4.57;;
76712;SDS011;65640;43.154;25.658;2023-06-26T09:40:03;8.20;;;4.72;;
76712;SDS011;65640;43.154;25.658;2023-06-26T09:42:32;8.93;;;4.45;;
76712;SDS011;65640;43.154;25.658;2023-06-26T09:47:23;5.45;;;4.47;;
76712;SDS011;65640;43.154;25.658;2023-06-26T09:52:15;7.32;;;4.28;;
76712;SDS011;65640;43.154;25.658;2023-06-26T09:54:41;8.13;;;4.85;;
76712;SDS011;65640;43.154;25.658;2023-06-26T09:57:10;7.38;;;4.57;;
76712;SDS011;65640;43.154;25.658;2023-06-26T09:59:43;4.32;;;3.92;;
76712;SDS011;65640;43.154;25.658;2023-06-26T10:02:10;5.68;;;4.10;;
76712;SDS011;65640;43.154;25.658;2023-06-26T10:04:37;5.35;;;3.80;;
76712;SDS011;65640;43.154;25.658;2023-06-26T10:07:04;7.03;;;3.92;;
76712;SDS011;65640;43.154;25.658;2023-06-26T10:09:31;5.63;;;4.07;;
76712;SDS011;65640;43.154;25.658;2023-06-26T10:12:06;5.38;;;4.25;;
76712;SDS011;65640;43.154;25.658;2023-06-26T10:14:39;7.55;;;4.30;;
76712;SDS011;65640;43.154;25.658;2023-06-26T10:17:08;7.70;;;4.40;;
76712;SDS011;65640;43.154;25.658;2023-06-26T10:19:35;6.78;;;4.75;;
76712;SDS011;65640;43.154;25.658;2023-06-26T10:22:05;5.43;;;4.57;;
76712;SDS011;65640;43.154;25.658;2023-06-26T10:24:31;5.35;;;4.72;;
76712;SDS011;65640;43.154;25.658;2023-06-26T10:27:00;7.53;;;4.32;;
76712;SDS011;65640;43.154;25.658;2023-06-26T10:29:28;6.18;;;4.32;;
76712;SDS011;65640;43.154;25.658;2023-06-26T10:31:57;5.20;;;4.50;;
76712;SDS011;65640;43.154;25.658;2023-06-26T10:34:25;4.13;;;3.72;;
76712;SDS011;65640;43.154;25.658;2023-06-26T10:39:50;5.80;;;4.07;;
76712;SDS011;65640;43.154;25.658;2023-06-26T10:42:20;5.18;;;4.03;;
76712;SDS011;65640;43.154;25.658;2023-06-26T10:45:08;6.78;;;3.88;;
76712;SDS011;65640;43.154;25.658;2023-06-26T10:47:45;4.13;;;3.47;;
76712;SDS011;65640;43.154;25.658;2023-06-26T10:50:18;4.75;;;3.83;;
76712;SDS011;65640;43.154;25.658;2023-06-26T10:53:11;5.15;;;3.40;;
76712;SDS011;65640;43.154;25.658;2023-06-26T10:55:43;3.30;;;3.00;;
76712;SDS011;65640;43.154;25.658;2023-06-26T10:58:31;4.32;;;3.72;;
76712;SDS011;65640;43.154;25.658;2023-06-26T11:04:05;3.88;;;3.58;;
76712;SDS011;65640;43.154;25.658;2023-06-26T11:06:32;5.50;;;3.50;;
76712;SDS011;65640;43.154;25.658;2023-06-26T11:14:25;6.15;;;3.30;;
76712;SDS011;65640;43.154;25.658;2023-06-26T11:16:57;4.50;;;4.10;;
76712;SDS011;65640;43.154;25.658;2023-06-26T11:19:23;3.97;;;3.70;;
76712;SDS011;65640;43.154;25.658;2023-06-26T11:21:51;7.30;;;3.78;;
76712;SDS011;65640;43.154;25.658;2023-06-26T11:24:17;4.15;;;3.75;;
76712;SDS011;65640;43.154;25.658;2023-06-26T11:29:10;3.97;;;3.58;;
76712;SDS011;65640;43.154;25.658;2023-06-26T11:31:37;4.82;;;4.07;;
76712;SDS011;65640;43.154;25.658;2023-06-26T11:34:04;4.15;;;3.67;;
76712;SDS011;65640;43.154;25.658;2023-06-26T11:36:32;19.27;;;4.13;;
76712;SDS011;65640;43.154;25.658;2023-06-26T11:38:59;4.63;;;3.60;;
76712;SDS011;65640;43.154;25.658;2023-06-26T11:41:27;4.97;;;3.90;;
76712;SDS011;65640;43.154;25.658;2023-06-26T11:43:53;4.78;;;4.18;;
76712;SDS011;65640;43.154;25.658;2023-06-26T11:46:19;4.68;;;3.70;;
76712;SDS011;65640;43.154;25.658;2023-06-26T11:48:47;8.07;;;3.85;;
76712;SDS011;65640;43.154;25.658;2023-06-26T11:51:14;4.05;;;3.75;;
76712;SDS011;65640;43.154;25.658;2023-06-26T11:53:43;5.05;;;3.42;;
76712;SDS011;65640;43.154;25.658;2023-06-26T11:56:16;8.55;;;3.95;;
76712;SDS011;65640;43.154;25.658;2023-06-26T11:58:55;3.83;;;3.47;;
76712;SDS011;65640;43.154;25.658;2023-06-26T12:01:22;4.80;;;3.53;;
76712;SDS011;65640;43.154;25.658;2023-06-26T12:03:48;4.05;;;3.42;;
76712;SDS011;65640;43.154;25.658;2023-06-26T12:06:14;3.88;;;3.58;;
76712;SDS011;65640;43.154;25.658;2023-06-26T12:08:40;8.30;;;3.83;;
76712;SDS011;65640;43.154;25.658;2023-06-26T12:11:06;3.10;;;2.80;;
76712;SDS011;65640;43.154;25.658;2023-06-26T12:15:58;2.90;;;2.70;;
76712;SDS011;65640;43.154;25.658;2023-06-26T12:20:50;3.00;;;2.80;;
76712;SDS011;65640;43.154;25.658;2023-06-26T12:23:16;7.82;;;2.97;;
76712;SDS011;65640;43.154;25.658;2023-06-26T12:25:42;4.57;;;3.10;;
76712;SDS011;65640;43.154;25.658;2023-06-26T12:28:17;5.30;;;3.28;;
76712;SDS011;65640;43.154;25.658;2023-06-26T12:30:47;5.10;;;3.22;;
76712;SDS011;65640;43.154;25.658;2023-06-26T12:33:31;3.13;;;2.92;;
76712;SDS011;65640;43.154;25.658;2023-06-26T12:38:22;5.18;;;2.58;;
76712;SDS011;65640;43.154;25.658;2023-06-26T12:43:22;4.50;;;3.70;;
76712;SDS011;65640;43.154;25.658;2023-06-26T12:45:48;4.72;;;3.92;;
76712;SDS011;65640;43.154;25.658;2023-06-26T12:48:13;8.77;;;4.55;;
76712;SDS011;65640;43.154;25.658;2023-06-26T12:50:45;9.65;;;3.40;;
76712;SDS011;65640;43.154;25.658;2023-06-26T12:53:10;10.13;;;3.80;;
76712;SDS011;65640;43.154;25.658;2023-06-26T12:55:36;5.35;;;4.22;;
76712;SDS011;65640;43.154;25.658;2023-06-26T12:58:01;7.10;;;4.68;;
76712;SDS011;65640;43.154;25.658;2023-06-26T13:00:27;10.95;;;6.07;;
76712;SDS011;65640;43.154;25.658;2023-06-26T13:02:52;10.40;;;5.57;;
76712;SDS011;65640;43.154;25.658;2023-06-26T13:05:18;9.45;;;5.47;;
76712;SDS011;65640;43.154;25.658;2023-06-26T13:07:44;6.90;;;5.03;;
76712;SDS011;65640;43.154;25.658;2023-06-26T13:10:09;6.95;;;4.70;;
76712;SDS011;65640;43.154;25.658;2023-06-26T13:12:35;5.28;;;4.00;;
76712;SDS011;65640;43.154;25.658;2023-06-26T13:15:00;4.53;;;4.18;;
76712;SDS011;65640;43.154;25.658;2023-06-26T13:17:26;8.35;;;5.15;;
76712;SDS011;65640;43.154;25.658;2023-06-26T13:19:51;9.55;;;5.45;;
76712;SDS011;65640;43.154;25.658;2023-06-26T13:22:16;5.88;;;4.78;;
76712;SDS011;65640;43.154;25.658;2023-06-26T13:24:42;4.07;;;3.60;;
76712;SDS011;65640;43.154;25.658;2023-06-26T13:27:07;5.32;;;3.30;;
76712;SDS011;65640;43.154;25.658;2023-06-26T13:29:33;4.22;;;3.35;;
76712;SDS011;65640;43.154;25.658;2023-06-26T13:31:58;3.03;;;2.60;;
76712;SDS011;65640;43.154;25.658;2023-06-26T13:34:24;2.80;;;2.00;;
76712;SDS011;65640;43.154;25.658;2023-06-26T13:36:52;3.40;;;2.30;;
76712;SDS011;65640;43.154;25.658;2023-06-26T13:39:18;3.35;;;2.13;;
76712;SDS011;65640;43.154;25.658;2023-06-26T13:41:43;1.98;;;1.88;;
76712;SDS011;65640;43.154;25.658;2023-06-26T13:44:09;4.30;;;2.13;;
76712;SDS011;65640;43.154;25.658;2023-06-26T13:46:35;3.28;;;2.08;;
76712;SDS011;65640;43.154;25.658;2023-06-26T13:49:00;3.83;;;2.00;;
76712;SDS011;65640;43.154;25.658;2023-06-26T13:51:26;4.60;;;2.22;;
76712;SDS011;65640;43.154;25.658;2023-06-26T13:53:51;1.95;;;1.85;;
76712;SDS011;65640;43.154;25.658;2023-06-26T13:56:17;2.00;;;1.90;;
76712;SDS011;65640;43.154;25.658;2023-06-26T13:58:42;1.88;;;1.73;;
76712;SDS011;65640;43.154;25.658;2023-06-26T14:01:08;3.15;;;1.95;;
76712;SDS011;65640;43.154;25.658;2023-06-26T14:03:33;5.65;;;2.35;;
76712;SDS011;65640;43.154;25.658;2023-06-26T14:05:59;2.25;;;1.65;;
76712;SDS011;65640;43.154;25.658;2023-06-26T14:08:24;2.53;;;1.63;;
76712;SDS011;65640;43.154;25.658;2023-06-26T14:10:50;2.45;;;1.77;;
76712;SDS011;65640;43.154;25.658;2023-06-26T14:13:15;3.40;;;1.75;;
76712;SDS011;65640;43.154;25.658;2023-06-26T14:15:41;4.03;;;1.98;;
76712;SDS011;65640;43.154;25.658;2023-06-26T14:18:07;2.28;;;1.60;;
76712;SDS011;65640;43.154;25.658;2023-06-26T14:20:33;1.98;;;1.65;;
76712;SDS011;65640;43.154;25.658;2023-06-26T14:22:58;1.88;;;1.55;;
76712;SDS011;65640;43.154;25.658;2023-06-26T14:25:24;2.88;;;1.60;;
76712;SDS011;65640;43.154;25.658;2023-06-26T14:27:51;2.50;;;1.40;;
76712;SDS011;65640;43.154;25.658;2023-06-26T14:30:16;1.95;;;1.65;;
76712;SDS011;65640;43.154;25.658;2023-06-26T14:32:42;3.17;;;1.90;;
76712;SDS011;65640;43.154;25.658;2023-06-26T14:35:07;2.10;;;1.42;;
76712;SDS011;65640;43.154;25.658;2023-06-26T14:37:33;2.67;;;1.73;;
76712;SDS011;65640;43.154;25.658;2023-06-26T14:40:00;1.80;;;1.67;;
76712;SDS011;65640;43.154;25.658;2023-06-26T14:42:26;2.33;;;2.00;;
76712;SDS011;65640;43.154;25.658;2023-06-26T14:44:52;2.08;;;1.88;;
76712;SDS011;65640;43.154;25.658;2023-06-26T14:47:17;4.35;;;4.05;;
76712;SDS011;65640;43.154;25.658;2023-06-26T14:49:42;4.85;;;4.55;;
76712;SDS011;65640;43.154;25.658;2023-06-26T14:52:08;5.10;;;2.47;;
76712;SDS011;65640;43.154;25.658;2023-06-26T14:54:34;3.80;;;2.50;;
76712;SDS011;65640;43.154;25.658;2023-06-26T14:57:01;3.25;;;1.85;;
76712;SDS011;65640;43.154;25.658;2023-06-26T14:59:28;3.63;;;2.78;;
76712;SDS011;65640;43.154;25.658;2023-06-26T15:01:53;7.20;;;3.25;;
76712;SDS011;65640;43.154;25.658;2023-06-26T15:04:19;5.45;;;2.13;;
76712;SDS011;65640;43.154;25.658;2023-06-26T15:06:44;2.00;;;1.90;;
76712;SDS011;65640;43.154;25.658;2023-06-26T15:09:10;3.38;;;1.92;;
76712;SDS011;65640;43.154;25.658;2023-06-26T15:11:35;4.00;;;2.00;;
76712;SDS011;65640;43.154;25.658;2023-06-26T15:14:01;4.75;;;2.40;;
76712;SDS011;65640;43.154;25.658;2023-06-26T15:16:26;4.43;;;2.55;;
76712;SDS011;65640;43.154;25.658;2023-06-26T15:18:52;3.35;;;2.72;;
76712;SDS011;65640;43.154;25.658;2023-06-26T15:21:17;4.65;;;2.65;;
76712;SDS011;65640;43.154;25.658;2023-06-26T15:23:43;7.32;;;4.78;;
76712;SDS011;65640;43.154;25.658;2023-06-26T15:26:09;8.85;;;4.22;;
76712;SDS011;65640;43.154;25.658;2023-06-26T15:28:34;6.93;;;3.30;;
76712;SDS011;65640;43.154;25.658;2023-06-26T15:31:00;6.00;;;3.25;;
76712;SDS011;65640;43.154;25.658;2023-06-26T15:33:25;4.03;;;2.97;;